KNCA

New River MCAS / H / / McCutcheon Field / Airport

Jacksonville, North Carolina, USA
METAR KNCA 230456Z AUTO 00000KT 10SM CLR 11/09 A3025 RMK AO2 SLP244 T01060094 401890033
Observed Flight Rules
Oct-23 @ 04:56 UTC (22 minutes ago) Visual Flight Rules
Visibility Clouds
10 miles
  • Clear skies
Temperatures Readings
Current 11°C / 52°F
Dewpoint 9°C / 48°F
Humidity 88%
Altimeter 30.25" Hg
Pressure 1024.4 hPa
Elevation 8
METAR KNCA 230456Z AUTO 00000KT 10SM CLR 11/09 A3025 RMK AO2 SLP244 T01060094 401890033
Observed Flight Rules
Oct-23 @ 04:56 UTC
(22 minutes ago)
VFR
Clouds
  • Clear skies
Temperature Dewpoint
11°C / 52°F 9°C / 48°F
Humidity Altimeter Pressure
88% 30.25" Hg 1024.4 hPa